Time;durP1;ratioP1;P1;durP2;ratioP2;P2;SDS_P1;SDS_P2;PMS_P1;PMS_P2;Temp;Humidity;BMP_temperature;BMP_pressure;BME280_temperature;BME280_humidity;BME280_pressure;Samples;Min_cycle;Max_cycle;Signal;HPM_P1;HPM_P2
2022/03/11 00:02:05;;;;;;;8.38;5.05;;;21.40;55.30;;;;;;4994158;28;20029;-70
2022/03/11 00:04:30;;;;;;;7.88;4.50;;;21.40;55.00;;;;;;4993177;28;20037;-70
2022/03/11 00:06:56;;;;;;;6.45;4.55;;;21.40;55.20;;;;;;4993962;28;20111;-70
2022/03/11 00:09:22;;;;;;;7.15;4.57;;;21.40;54.90;;;;;;4975918;28;20518;-70
2022/03/11 00:11:48;;;;;;;8.70;5.05;;;21.40;55.00;;;;;;4992695;28;20340;-70
2022/03/11 00:14:13;;;;;;;9.57;5.13;;;21.40;54.90;;;;;;4993868;28;20018;-70
2022/03/11 00:16:39;;;;;;;8.60;4.85;;;21.40;54.80;;;;;;4993915;28;20027;-70
2022/03/11 00:19:05;;;;;;;7.53;4.50;;;21.40;54.70;;;;;;4994124;28;20112;-70
2022/03/11 00:21:31;;;;;;;7.90;4.70;;;21.40;54.70;;;;;;4992196;28;20057;-70
2022/03/11 00:23:56;;;;;;;8.60;5.10;;;21.40;54.70;;;;;;4993669;28;20108;-70
2022/03/11 00:26:22;;;;;;;10.82;5.13;;;21.40;54.60;;;;;;4993659;28;20121;-70
2022/03/11 00:28:48;;;;;;;8.60;5.10;;;21.40;54.40;;;;;;4976197;28;20034;-70
2022/03/11 00:31:14;;;;;;;7.35;4.68;;;21.40;54.30;;;;;;4993298;28;20533;-70
2022/03/11 00:33:39;;;;;;;8.00;5.00;;;21.40;54.30;;;;;;4993562;28;20069;-70
2022/03/11 00:36:05;;;;;;;8.25;4.90;;;21.40;54.20;;;;;;4992576;28;20026;-70
2022/03/11 00:38:31;;;;;;;7.07;4.47;;;21.40;54.40;;;;;;4976245;28;20117;-70
2022/03/11 00:40:57;;;;;;;8.38;4.65;;;21.40;54.40;;;;;;4992953;28;20034;-70
2022/03/11 00:43:23;;;;;;;8.35;4.90;;;21.40;54.10;;;;;;4992060;28;20114;-69
2022/03/11 00:45:49;;;;;;;7.28;4.68;;;21.40;54.10;;;;;;4993388;28;20054;-70
2022/03/11 00:48:15;;;;;;;8.48;4.55;;;21.40;54.20;;;;;;4992945;28;20100;-70
2022/03/11 00:50:41;;;;;;;8.07;4.68;;;21.40;54.20;;;;;;4992839;28;20026;-70
2022/03/11 00:53:06;;;;;;;7.50;4.63;;;21.40;53.80;;;;;;4991603;28;20073;-70
2022/03/11 00:55:35;;;;;;;9.63;4.73;;;21.40;53.90;;;;;;4993046;28;20109;-70
2022/03/11 00:58:01;;;;;;;8.20;4.72;;;21.40;53.80;;;;;;4992830;28;20510;-70
2022/03/11 01:00:27;;;;;;;7.18;4.38;;;21.40;53.80;;;;;;4992434;28;20110;-70
2022/03/11 01:02:52;;;;;;;7.28;4.57;;;21.40;53.90;;;;;;4991651;28;20430;-70
2022/03/11 01:05:19;;;;;;;7.05;4.43;;;21.40;54.00;;;;;;4992891;28;20073;-70
2022/03/11 01:07:45;;;;;;;7.07;4.38;;;21.40;53.60;;;;;;4991641;28;20030;-71
2022/03/11 01:10:11;;;;;;;7.93;4.60;;;21.40;53.80;;;;;;4992437;28;20041;-71
2022/03/11 01:12:37;;;;;;;7.13;4.18;;;21.40;53.80;;;;;;4975562;28;20045;-70
2022/03/11 01:15:04;;;;;;;7.85;4.32;;;21.40;53.60;;;;;;4992705;28;20514;-70
2022/03/11 01:17:30;;;;;;;8.82;4.57;;;21.40;53.60;;;;;;4974568;28;20034;-70
2022/03/11 01:19:55;;;;;;;7.45;4.53;;;21.40;53.60;;;;;;4992036;28;20037;-70
2022/03/11 01:22:21;;;;;;;9.00;4.72;;;21.40;53.60;;;;;;4992566;28;20540;-70
2022/03/11 01:24:47;;;;;;;8.10;4.68;;;21.40;53.30;;;;;;4992523;28;20049;-70
2022/03/11 01:27:12;;;;;;;7.85;4.57;;;21.40;53.50;;;;;;4992398;28;20042;-70
2022/03/11 01:29:38;;;;;;;9.20;4.90;;;21.40;53.40;;;;;;4991443;28;20070;-70
2022/03/11 01:32:04;;;;;;;6.30;4.13;;;21.40;53.30;;;;;;4974855;28;20112;-70
2022/03/11 01:34:30;;;;;;;7.93;4.32;;;21.40;53.40;;;;;;4991038;28;20034;-70
2022/03/11 01:36:56;;;;;;;6.43;4.13;;;21.40;53.20;;;;;;4975465;28;20084;-70
2022/03/11 01:39:22;;;;;;;7.40;4.18;;;21.40;53.30;;;;;;4991813;28;20034;-70
2022/03/11 01:41:47;;;;;;;8.35;4.50;;;21.40;53.50;;;;;;4991268;28;20037;-71
2022/03/11 01:44:13;;;;;;;7.72;4.43;;;21.40;53.20;;;;;;4992263;28;20063;-71
2022/03/11 01:46:39;;;;;;;8.18;4.45;;;21.40;53.00;;;;;;4990945;28;20112;-70
2022/03/11 01:49:07;;;;;;;6.43;4.15;;;21.40;53.20;;;;;;4991792;28;20387;-70
2022/03/11 01:51:36;;;;;;;6.90;4.25;;;21.40;53.40;;;;;;4992010;28;20114;-71
2022/03/11 01:54:02;;;;;;;6.55;4.20;;;21.40;52.90;;;;;;4992231;28;20030;-70
2022/03/11 01:56:28;;;;;;;7.07;4.10;;;21.40;52.70;;;;;;4992125;28;20414;-70
2022/03/11 01:58:55;;;;;;;8.00;4.28;;;21.40;53.00;;;;;;4992072;28;20113;-71
2022/03/11 02:01:23;;;;;;;7.60;4.30;;;21.40;52.80;;;;;;4990322;28;20073;-71
2022/03/11 02:03:49;;;;;;;8.18;4.15;;;21.40;52.50;;;;;;4974569;28;20073;-71
2022/03/11 02:06:18;;;;;;;7.32;4.22;;;21.40;52.70;;;;;;4991876;28;20457;-70
2022/03/11 02:08:44;;;;;;;8.13;4.38;;;21.40;52.70;;;;;;4991918;28;20034;-71
2022/03/11 02:11:13;;;;;;;6.93;3.97;;;21.40;52.90;;;;;;4991663;28;20022;-71
2022/03/11 02:13:47;;;;;;;6.97;4.10;;;21.40;52.50;;;;;;4991863;28;20537;-71
2022/03/11 02:16:15;;;;;;;6.10;3.85;;;21.40;52.40;;;;;;4990748;28;20070;-71
2022/03/11 02:18:41;;;;;;;8.23;4.20;;;21.40;52.70;;;;;;4990494;28;20046;-70
2022/03/11 02:21:09;;;;;;;7.45;4.07;;;21.40;52.80;;;;;;4991756;28;20042;-70
2022/03/11 02:23:44;;;;;;;6.13;3.67;;;21.40;52.90;;;;;;4992124;28;20030;-71
2022/03/11 02:26:14;;;;;;;7.03;3.80;;;21.40;52.80;;;;;;4991871;28;20030;-71
2022/03/11 02:28:40;;;;;;;5.93;3.88;;;21.40;52.40;;;;;;4994148;28;20545;-71
2022/03/11 02:31:05;;;;;;;6.25;3.92;;;21.40;52.50;;;;;;4994298;28;20026;-70
2022/03/11 02:33:31;;;;;;;5.90;3.95;;;21.40;52.30;;;;;;4994729;28;20383;-70
2022/03/11 02:35:57;;;;;;;8.88;4.20;;;21.40;52.30;;;;;;4995696;28;20030;-71
2022/03/11 02:38:23;;;;;;;8.10;4.20;;;21.40;52.20;;;;;;4995911;28;20140;-70
2022/03/11 02:40:49;;;;;;;5.20;3.58;;;21.40;51.40;;;;;;4994107;28;20046;-71
2022/03/11 02:43:15;;;;;;;8.48;4.70;;;21.40;52.10;;;;;;4994609;28;20042;-71
2022/03/11 02:45:41;;;;;;;7.22;3.97;;;21.40;52.40;;;;;;4995543;28;20034;-70
2022/03/11 02:48:07;;;;;;;7.07;3.92;;;21.40;51.80;;;;;;4995581;28;20034;-71
2022/03/11 02:50:35;;;;;;;6.45;3.90;;;21.40;51.80;;;;;;4993746;28;20026;-71
2022/03/11 02:53:01;;;;;;;6.72;3.85;;;21.40;52.00;;;;;;4995432;28;20023;-71
2022/03/11 02:55:26;;;;;;;7.53;3.60;;;21.40;51.70;;;;;;4995245;28;20550;-70
2022/03/11 02:57:52;;;;;;;6.07;3.80;;;21.40;51.50;;;;;;4995374;28;20038;-71
2022/03/11 03:00:18;;;;;;;8.70;4.22;;;21.40;51.60;;;;;;4994830;28;20030;-70
2022/03/11 03:02:44;;;;;;;7.20;4.05;;;21.40;51.80;;;;;;4994257;28;20395;-71
2022/03/11 03:05:09;;;;;;;7.53;4.47;;;21.40;51.50;;;;;;4993975;28;20034;-71
2022/03/11 03:07:35;;;;;;;7.38;4.22;;;21.40;51.70;;;;;;4995035;28;20026;-71
2022/03/11 03:10:01;;;;;;;7.32;4.28;;;21.40;51.40;;;;;;4994680;28;20036;-71
2022/03/11 03:12:27;;;;;;;7.20;3.78;;;21.30;51.30;;;;;;4995017;28;20022;-70
2022/03/11 03:14:53;;;;;;;6.30;4.15;;;21.40;51.20;;;;;;4995045;28;20041;-70
2022/03/11 03:17:21;;;;;;;6.43;3.90;;;21.40;51.10;;;;;;4994993;28;20541;-70
2022/03/11 03:19:47;;;;;;;8.00;4.28;;;21.40;51.00;;;;;;4994594;28;20440;-70
2022/03/11 03:22:13;;;;;;;6.68;4.03;;;21.40;51.30;;;;;;4993736;28;20398;-71
2022/03/11 03:24:42;;;;;;;6.65;4.53;;;21.40;51.00;;;;;;4993837;28;20054;-70
2022/03/11 03:27:08;;;;;;;7.30;4.13;;;21.40;50.90;;;;;;4993803;28;20438;-70
2022/03/11 03:29:34;;;;;;;6.97;4.25;;;21.40;51.60;;;;;;4992953;28;20038;-71
2022/03/11 03:32:00;;;;;;;6.70;3.78;;;21.40;50.90;;;;;;4994708;28;20456;-71
2022/03/11 03:34:31;;;;;;;6.40;4.22;;;21.40;50.70;;;;;;4994594;28;20025;-70
2022/03/11 03:36:58;;;;;;;6.13;3.83;;;21.40;50.90;;;;;;4993362;28;20044;-70
2022/03/11 03:39:24;;;;;;;8.02;4.53;;;21.40;50.70;;;;;;4993056;28;20031;-70
2022/03/11 03:41:52;;;;;;;6.72;4.30;;;21.40;51.00;;;;;;4995116;28;20463;-70
2022/03/11 03:44:18;;;;;;;6.40;4.00;;;21.40;50.70;;;;;;4993482;28;20399;-71
2022/03/11 03:46:44;;;;;;;7.18;3.97;;;21.40;50.60;;;;;;4993560;28;20034;-71
2022/03/11 03:49:10;;;;;;;6.93;4.30;;;21.40;50.60;;;;;;4994217;28;20031;-71
2022/03/11 03:51:38;;;;;;;9.20;4.57;;;21.40;50.60;;;;;;4992874;28;20022;-70
2022/03/11 03:54:04;;;;;;;6.53;3.80;;;21.40;50.50;;;;;;4994177;28;20450;-71
2022/03/11 03:56:30;;;;;;;6.65;4.20;;;21.40;50.40;;;;;;4994168;28;20390;-71
2022/03/11 03:58:56;;;;;;;8.23;4.30;;;21.40;50.90;;;;;;4994175;28;20038;-71
2022/03/11 04:01:21;;;;;;;7.13;4.40;;;21.40;50.30;;;;;;4993657;28;20120;-71
2022/03/11 04:03:47;;;;;;;9.18;3.97;;;21.40;50.50;;;;;;4994253;28;20034;-70
2022/03/11 04:06:13;;;;;;;8.20;4.55;;;21.40;50.40;;;;;;4993005;28;20376;-71
2022/03/11 04:08:39;;;;;;;7.38;4.43;;;21.40;50.40;;;;;;4993976;28;20038;-71
2022/03/11 04:11:05;;;;;;;7.72;4.18;;;21.40;50.30;;;;;;4992507;28;20041;-70
2022/03/11 04:13:31;;;;;;;6.72;4.18;;;21.40;50.20;;;;;;4993834;28;20034;-71
2022/03/11 04:15:56;;;;;;;7.55;4.53;;;21.40;50.30;;;;;;4992674;28;20031;-71
2022/03/11 04:18:23;;;;;;;6.25;4.30;;;21.40;50.20;;;;;;4993911;28;20034;-71
2022/03/11 04:20:48;;;;;;;8.98;4.80;;;21.40;50.10;;;;;;4991957;28;20073;-71
2022/03/11 04:23:14;;;;;;;7.78;4.55;;;21.30;50.10;;;;;;4992678;28;20034;-71
2022/03/11 04:25:40;;;;;;;9.70;4.88;;;21.40;50.10;;;;;;4993809;28;20041;-71
2022/03/11 04:28:06;;;;;;;8.32;4.32;;;21.40;50.20;;;;;;4993633;28;20467;-70
2022/03/11 04:30:31;;;;;;;7.65;4.30;;;21.40;50.20;;;;;;4992072;28;20113;-70
2022/03/11 04:32:57;;;;;;;8.40;4.55;;;21.40;50.10;;;;;;4993713;28;20035;-70
2022/03/11 04:35:23;;;;;;;8.93;4.78;;;21.40;50.10;;;;;;4992470;28;20045;-70
2022/03/11 04:37:48;;;;;;;6.70;4.43;;;21.30;50.00;;;;;;4976510;28;20542;-70
2022/03/11 04:40:14;;;;;;;6.30;4.15;;;21.40;50.00;;;;;;4975861;28;20478;-70
2022/03/11 04:42:40;;;;;;;7.10;4.30;;;21.40;49.80;;;;;;4993376;28;20057;-70
2022/03/11 04:45:06;;;;;;;8.48;4.93;;;21.40;50.30;;;;;;4992214;28;20030;-70
2022/03/11 04:47:32;;;;;;;7.70;4.30;;;21.40;50.10;;;;;;4992051;28;20035;-70
2022/03/11 04:49:58;;;;;;;7.65;4.18;;;21.30;50.00;;;;;;4992961;28;20360;-70
2022/03/11 04:52:23;;;;;;;7.90;4.85;;;21.40;49.70;;;;;;4993084;28;20026;-69
2022/03/11 04:54:49;;;;;;;7.75;4.93;;;21.40;49.70;;;;;;4993067;28;20027;-70
2022/03/11 04:57:15;;;;;;;7.93;4.57;;;21.30;49.60;;;;;;4991874;28;20493;-70
2022/03/11 04:59:42;;;;;;;7.38;4.78;;;21.40;49.50;;;;;;4991613;28;20499;-70
2022/03/11 05:02:07;;;;;;;7.40;4.35;;;21.40;50.10;;;;;;4992985;28;20041;-70
2022/03/11 05:04:33;;;;;;;7.22;4.65;;;21.40;49.50;;;;;;4992082;28;20034;-70
2022/03/11 05:06:59;;;;;;;6.93;4.40;;;21.40;49.60;;;;;;4992962;28;20026;-69
2022/03/11 05:09:24;;;;;;;7.72;4.57;;;21.30;49.40;;;;;;4991346;28;20026;-69
2022/03/11 05:11:50;;;;;;;9.75;4.75;;;21.30;49.50;;;;;;4992866;28;20026;-69
2022/03/11 05:14:16;;;;;;;9.52;5.38;;;21.30;49.60;;;;;;4992921;28;20427;-70
2022/03/11 05:16:42;;;;;;;8.70;4.75;;;21.40;49.50;;;;;;4991554;28;20022;-69
2022/03/11 05:19:07;;;;;;;7.80;4.80;;;21.30;49.30;;;;;;4992749;28;20033;-70
2022/03/11 05:21:33;;;;;;;7.28;4.72;;;21.30;49.30;;;;;;4992298;28;20042;-69
2022/03/11 05:23:59;;;;;;;8.25;4.53;;;21.30;49.30;;;;;;4992704;28;20077;-69
2022/03/11 05:26:25;;;;;;;8.38;4.97;;;21.30;49.20;;;;;;4991411;28;20030;-70
2022/03/11 05:28:53;;;;;;;8.20;5.13;;;21.40;49.40;;;;;;4992525;28;20100;-70
2022/03/11 05:31:19;;;;;;;7.55;5.00;;;21.30;49.20;;;;;;4992117;28;20590;-70
2022/03/11 05:33:45;;;;;;;8.38;4.68;;;21.30;49.20;;;;;;4992623;28;20394;-69
2022/03/11 05:36:10;;;;;;;8.73;4.80;;;21.30;49.10;;;;;;4992467;28;20022;-70
2022/03/11 05:38:36;;;;;;;7.38;4.45;;;21.30;49.10;;;;;;4992449;28;20038;-70
2022/03/11 05:41:03;;;;;;;8.50;4.85;;;21.40;49.20;;;;;;4991772;28;20702;-70
2022/03/11 05:43:29;;;;;;;7.43;4.60;;;21.40;49.20;;;;;;4992222;28;20026;-70
2022/03/11 05:45:55;;;;;;;9.75;5.18;;;21.40;49.10;;;;;;4992357;28;20030;-69
2022/03/11 05:48:20;;;;;;;8.98;4.70;;;21.40;49.50;;;;;;4992385;28;20026;-69
2022/03/11 05:50:46;;;;;;;8.93;5.35;;;21.40;49.10;;;;;;4990749;28;20031;-70
2022/03/11 05:53:12;;;;;;;9.43;4.82;;;21.40;49.10;;;;;;4991254;28;20113;-70
2022/03/11 05:55:37;;;;;;;7.60;5.13;;;21.40;49.00;;;;;;4992180;28;20019;-70
2022/03/11 05:58:03;;;;;;;8.63;5.00;;;21.40;49.00;;;;;;4974773;28;20034;-70
2022/03/11 06:00:29;;;;;;;8.13;5.30;;;21.40;48.80;;;;;;4991771;28;20073;-70
2022/03/11 06:02:54;;;;;;;8.45;4.85;;;21.30;48.80;;;;;;4990436;28;20030;-70
2022/03/11 06:05:20;;;;;;;8.52;4.88;;;21.40;49.00;;;;;;4990981;28;20030;-69
2022/03/11 06:07:46;;;;;;;8.18;5.15;;;21.30;48.70;;;;;;4991851;28;20030;-70
2022/03/11 06:10:11;;;;;;;7.28;4.97;;;21.40;48.60;;;;;;4991569;28;20073;-69
2022/03/11 06:12:38;;;;;;;11.00;5.35;;;21.30;48.70;;;;;;4990820;28;20474;-70
2022/03/11 06:15:08;;;;;;;10.88;5.80;;;21.30;48.60;;;;;;4992098;28;20399;-70
2022/03/11 06:17:34;;;;;;;7.95;4.72;;;21.30;48.70;;;;;;4991171;28;20057;-70
2022/03/11 06:20:00;;;;;;;8.30;5.15;;;21.30;48.70;;;;;;4998247;23;21620;-71
2022/03/11 06:22:26;;;;;;;10.70;4.05;;;21.40;49.30;;;;;;4933815;29;20032;-71
2022/03/11 06:24:51;;;;;;;14.65;4.80;;;21.40;52.90;;;;;;4967619;28;20054;-70
2022/03/11 06:27:17;;;;;;;14.32;4.30;;;21.50;53.30;;;;;;4940904;29;20027;-72
2022/03/11 06:29:43;;;;;;;12.90;4.32;;;21.50;54.30;;;;;;4950832;28;20083;-72
2022/03/11 06:32:08;;;;;;;8.70;3.65;;;21.40;54.80;;;;;;4931109;29;20477;-72
2022/03/11 06:34:35;;;;;;;11.45;4.45;;;21.50;55.90;;;;;;4933370;29;20031;-71
2022/03/11 06:37:01;;;;;;;11.38;4.00;;;21.40;55.50;;;;;;4933717;29;20318;-72
2022/03/11 06:39:26;;;;;;;10.60;4.30;;;21.40;56.10;;;;;;4933550;29;20079;-72
2022/03/11 06:41:52;;;;;;;9.38;4.03;;;21.50;54.00;;;;;;4932391;29;20028;-72
2022/03/11 06:44:18;;;;;;;7.35;3.85;;;21.50;55.40;;;;;;4937059;29;20111;-73
2022/03/11 06:46:44;;;;;;;11.38;4.20;;;21.50;54.40;;;;;;4951583;28;20126;-74
2022/03/11 06:49:11;;;;;;;11.40;4.38;;;21.50;53.70;;;;;;4951599;29;20039;-72
2022/03/11 06:51:38;;;;;;;9.32;4.22;;;21.50;53.90;;;;;;4948707;28;20032;-72
2022/03/11 06:54:06;;;;;;;13.18;4.57;;;21.60;53.50;;;;;;4913684;29;20382;-69
2022/03/11 06:56:32;;;;;;;9.77;4.55;;;21.60;54.20;;;;;;4914517;29;20436;-71
2022/03/11 06:58:59;;;;;;;10.25;4.63;;;21.60;54.70;;;;;;4915069;29;20036;-71
2022/03/11 07:01:24;;;;;;;12.88;4.35;;;21.60;54.30;;;;;;4897661;29;20032;-72
2022/03/11 07:03:50;;;;;;;10.57;4.63;;;21.70;55.00;;;;;;4914462;29;20036;-71
2022/03/11 07:06:20;;;;;;;11.55;4.88;;;21.70;54.30;;;;;;4914983;29;20489;-71
2022/03/11 07:08:45;;;;;;;9.55;4.82;;;21.70;54.10;;;;;;4915544;29;20039;-71
2022/03/11 07:11:11;;;;;;;9.23;4.47;;;21.70;54.80;;;;;;4913358;29;20127;-72
2022/03/11 07:13:37;;;;;;;11.60;4.47;;;21.70;53.90;;;;;;4913655;29;20033;-72
2022/03/11 07:16:04;;;;;;;10.32;4.70;;;21.60;54.30;;;;;;4918180;29;20065;-71
2022/03/11 07:18:30;;;;;;;9.98;4.25;;;21.70;54.30;;;;;;4924432;29;20027;-71
2022/03/11 07:20:56;;;;;;;14.82;4.60;;;21.70;54.70;;;;;;4936338;29;20110;-71
2022/03/11 07:23:22;;;;;;;7.95;4.00;;;21.70;54.70;;;;;;4935923;29;20492;-72
2022/03/11 07:25:48;;;;;;;12.32;4.95;;;21.70;54.50;;;;;;4935543;29;20027;-71
2022/03/11 07:28:14;;;;;;;20.45;6.70;;;21.60;54.70;;;;;;4936909;29;20031;-74
2022/03/11 07:30:40;;;;;;;12.18;5.40;;;21.50;50.70;;;;;;4935324;29;20031;-72
2022/03/11 07:33:07;;;;;;;15.38;6.32;;;21.50;53.60;;;;;;4935454;29;20396;-70
2022/03/11 07:35:33;;;;;;;11.60;5.97;;;21.40;51.80;;;;;;4919816;29;20463;-72
2022/03/11 07:38:01;;;;;;;12.32;5.25;;;21.50;51.80;;;;;;4935571;29;20042;-71
2022/03/11 07:40:26;;;;;;;16.05;6.07;;;21.50;51.30;;;;;;4935192;29;20039;-71
2022/03/11 07:42:52;;;;;;;13.13;5.40;;;21.50;51.60;;;;;;4935162;29;20481;-71
2022/03/11 07:45:18;;;;;;;15.68;6.05;;;21.60;51.50;;;;;;4936589;29;20040;-72
2022/03/11 07:47:44;;;;;;;18.08;6.07;;;21.60;51.70;;;;;;4936703;29;20028;-70
2022/03/11 07:50:11;;;;;;;22.67;10.70;;;21.60;51.80;;;;;;4936104;29;20028;-72
2022/03/11 07:52:38;;;;;;;27.38;12.65;;;21.30;45.70;;;;;;4919505;29;20484;-71
2022/03/11 07:55:09;;;;;;;20.85;10.55;;;21.20;43.00;;;;;;4935185;29;20028;-72
2022/03/11 07:57:36;;;;;;;14.40;7.75;;;21.20;45.60;;;;;;4936248;29;20028;-71
2022/03/11 08:00:08;;;;;;;17.48;9.00;;;21.30;46.10;;;;;;4934673;29;20087;-72
2022/03/11 08:02:40;;;;;;;13.60;8.40;;;21.40;44.90;;;;;;4936229;29;20035;-72
2022/03/11 08:05:06;;;;;;;20.40;9.20;;;21.40;44.40;;;;;;4936275;29;20024;-72
2022/03/11 08:07:34;;;;;;;20.33;9.65;;;21.40;44.00;;;;;;4935946;29;20425;-71
2022/03/11 08:09:59;;;;;;;16.25;8.85;;;21.50;44.30;;;;;;4935713;29;20024;-72
2022/03/11 08:12:25;;;;;;;19.17;8.65;;;21.50;44.80;;;;;;4935761;29;20038;-71
2022/03/11 08:14:51;;;;;;;17.65;8.38;;;21.60;45.00;;;;;;4936079;29;20043;-71
2022/03/11 08:17:17;;;;;;;15.65;8.57;;;21.60;45.20;;;;;;4934901;29;20035;-71
2022/03/11 08:19:42;;;;;;;18.13;8.77;;;21.60;45.40;;;;;;4935460;29;20445;-71
2022/03/11 08:22:08;;;;;;;16.00;8.68;;;21.70;45.60;;;;;;4935910;29;20043;-71
2022/03/11 08:24:34;;;;;;;16.83;8.45;;;21.70;45.80;;;;;;4935896;29;20023;-71
2022/03/11 08:26:59;;;;;;;16.35;8.27;;;21.70;46.00;;;;;;4935181;29;20036;-72
2022/03/11 08:29:31;;;;;;;14.90;8.23;;;21.70;46.20;;;;;;4935519;29;20024;-72
2022/03/11 08:31:59;;;;;;;16.17;8.77;;;21.70;46.20;;;;;;4935862;29;20465;-72
2022/03/11 08:34:25;;;;;;;12.80;7.68;;;21.70;46.40;;;;;;4935611;29;20485;-72
2022/03/11 08:36:51;;;;;;;17.83;8.20;;;21.80;46.50;;;;;;4935696;29;20050;-72
2022/03/11 08:39:16;;;;;;;17.15;8.20;;;21.80;46.60;;;;;;4935302;29;20503;-71
2022/03/11 08:41:42;;;;;;;16.25;7.88;;;21.80;46.70;;;;;;4935292;29;20031;-72
2022/03/11 08:44:08;;;;;;;13.95;8.15;;;21.80;46.90;;;;;;4935565;29;20023;-71
2022/03/11 08:46:36;;;;;;;13.32;7.80;;;21.80;46.80;;;;;;4935464;29;20036;-71
2022/03/11 08:49:02;;;;;;;15.48;8.05;;;21.80;47.00;;;;;;4935399;29;20436;-72
2022/03/11 08:51:28;;;;;;;13.77;7.63;;;21.80;47.20;;;;;;4935181;29;20059;-72
2022/03/11 08:53:54;;;;;;;14.18;8.07;;;21.80;47.20;;;;;;4933798;29;20038;-71
2022/03/11 08:56:22;;;;;;;16.98;7.88;;;21.80;47.20;;;;;;4935465;29;20035;-71
2022/03/11 08:58:49;;;;;;;17.02;8.13;;;21.80;47.30;;;;;;4935298;29;20071;-72
2022/03/11 09:01:15;;;;;;;14.55;7.80;;;21.80;47.40;;;;;;4933696;29;20039;-72
2022/03/11 09:03:41;;;;;;;14.88;8.25;;;21.90;47.30;;;;;;4918317;29;20032;-71
2022/03/11 09:06:07;;;;;;;13.38;7.93;;;21.90;47.50;;;;;;4935153;29;20036;-72
2022/03/11 09:08:33;;;;;;;13.57;7.70;;;21.90;47.50;;;;;;4934813;29;20028;-71
2022/03/11 09:10:58;;;;;;;15.55;8.27;;;21.90;47.60;;;;;;4934736;29;20027;-71
2022/03/11 09:13:24;;;;;;;13.30;7.22;;;21.90;47.60;;;;;;4933987;29;20031;-72
2022/03/11 09:15:49;;;;;;;14.43;8.32;;;21.90;47.60;;;;;;4918096;29;20115;-72
2022/03/11 09:18:15;;;;;;;13.20;7.82;;;21.90;47.70;;;;;;4934792;29;20027;-72
2022/03/11 09:20:41;;;;;;;13.93;8.20;;;21.90;47.80;;;;;;4934208;29;20039;-72
2022/03/11 09:23:08;;;;;;;14.07;7.25;;;21.90;47.80;;;;;;4933756;29;20066;-72
2022/03/11 09:25:33;;;;;;;11.82;7.25;;;21.90;47.80;;;;;;4934887;29;20032;-72
2022/03/11 09:27:59;;;;;;;13.57;7.40;;;22.00;47.90;;;;;;4934828;29;20094;-72
2022/03/11 09:30:25;;;;;;;16.25;7.75;;;22.00;48.00;;;;;;4934449;29;20056;-72
2022/03/11 09:32:50;;;;;;;13.73;7.22;;;22.00;48.00;;;;;;4934598;29;20031;-72
2022/03/11 09:35:16;;;;;;;13.68;8.00;;;22.00;48.00;;;;;;4935086;29;20111;-72
2022/03/11 09:37:42;;;;;;;13.60;7.15;;;22.00;48.00;;;;;;4933746;29;20059;-72
2022/03/11 09:40:10;;;;;;;12.15;7.28;;;22.00;48.00;;;;;;4932916;29;20352;-72
2022/03/11 09:42:36;;;;;;;12.20;7.63;;;22.00;48.00;;;;;;4933323;29;20031;-72
2022/03/11 09:45:03;;;;;;;14.52;7.68;;;22.00;48.00;;;;;;4933287;29;20428;-72
2022/03/11 09:47:29;;;;;;;15.05;8.32;;;22.00;48.10;;;;;;4933343;29;20032;-71
2022/03/11 09:49:55;;;;;;;13.00;7.13;;;22.00;48.20;;;;;;4934207;29;20354;-72
2022/03/11 09:52:20;;;;;;;13.63;7.50;;;22.00;48.10;;;;;;4933062;29;20090;-72
2022/03/11 09:54:46;;;;;;;14.48;6.97;;;22.00;48.10;;;;;;4934410;29;20036;-72
2022/03/11 09:57:19;;;;;;;13.90;6.72;;;22.00;48.10;;;;;;4934317;29;20055;-71
2022/03/11 09:59:45;;;;;;;13.32;6.88;;;22.00;48.10;;;;;;4916863;29;20564;-72
2022/03/11 10:02:12;;;;;;;12.77;7.40;;;21.90;48.10;;;;;;4932923;29;20031;-72
2022/03/11 10:05:02;;;;;;;11.45;6.93;;;21.90;48.00;;;;;;4934020;29;20485;-72
2022/03/11 10:07:29;;;;;;;;;;;21.90;48.10;;;;;;4933332;29;20366;-72
2022/03/11 10:09:56;;;;;;;12.73;7.03;;;21.90;48.10;;;;;;4933824;29;19915;-72
2022/03/11 10:12:26;;;;;;;12.25;7.53;;;21.90;48.10;;;;;;4933055;29;20103;-72
2022/03/11 10:14:56;;;;;;;;;;;21.90;48.00;;;;;;4933236;29;20135;-72
2022/03/11 10:17:22;;;;;;;12.45;6.80;;;22.00;48.10;;;;;;4933947;29;19947;-72
2022/03/11 10:20:06;;;;;;;11.93;6.78;;;22.00;48.10;;;;;;4933452;29;20400;-71
2022/03/11 10:22:32;;;;;;;13.30;6.85;;;22.00;48.20;;;;;;4932818;29;20044;-72
2022/03/11 10:25:18;;;;;;;11.00;6.75;;;22.00;48.20;;;;;;4933759;29;20032;-71
2022/03/11 10:27:57;;;;;;;11.73;6.60;;;22.00;48.10;;;;;;4933763;29;20024;-72
2022/03/11 10:30:25;;;;;;;14.15;6.93;;;22.00;48.20;;;;;;4933483;29;20035;-72
2022/03/11 10:32:55;;;;;;;14.27;7.00;;;22.00;48.20;;;;;;4933841;29;20027;-72
2022/03/11 10:35:39;;;;;;;11.32;7.00;;;22.00;48.30;;;;;;4934458;29;20027;-72
2022/03/11 10:38:10;;;;;;;13.18;7.00;;;22.00;48.30;;;;;;4933353;29;20528;-72
2022/03/11 10:40:41;;;;;;;13.65;6.90;;;22.00;48.20;;;;;;4932225;29;20039;-72
2022/03/11 10:43:16;;;;;;;12.48;7.15;;;22.00;48.30;;;;;;4933950;29;20023;-72
2022/03/11 10:46:06;;;;;;;12.00;6.85;;;22.00;48.30;;;;;;4932628;29;20042;-72
2022/03/11 10:48:46;;;;;;;11.82;6.93;;;22.00;48.40;;;;;;4932023;29;20043;-72
2022/03/11 10:51:18;;;;;;;;;;;22.00;48.30;;;;;;4936660;29;20370;-72
2022/03/11 10:53:49;;;;;;;11.05;6.75;;;22.00;48.30;;;;;;4936569;29;19915;-72
2022/03/11 10:56:36;;;;;;;12.50;6.75;;;22.00;48.30;;;;;;4920305;29;20028;-72
2022/03/11 10:59:20;;;;;;;11.80;6.40;;;22.00;48.30;;;;;;4937418;29;20066;-72
2022/03/11 11:01:46;;;;;;;12.65;7.47;;;21.90;48.20;;;;;;4936103;29;20122;-72
2022/03/11 11:04:14;;;;;;;10.40;6.38;;;21.90;48.30;;;;;;4937213;29;20178;-73
2022/03/11 11:06:41;;;;;;;12.45;7.38;;;21.90;48.30;;;;;;4937214;29;20031;-72
2022/03/11 11:09:09;;;;;;;12.50;6.72;;;21.90;48.30;;;;;;4937181;29;20134;-72
2022/03/11 11:11:34;;;;;;;12.30;6.50;;;21.90;48.30;;;;;;4935572;29;20144;-73
2022/03/11 11:14:07;;;;;;;10.75;6.22;;;21.90;48.20;;;;;;4920362;29;20505;-72
2022/03/11 11:16:40;;;;;;;12.90;6.85;;;21.90;48.20;;;;;;4937111;29;20087;-72
2022/03/11 11:19:11;;;;;;;9.93;6.25;;;21.90;48.20;;;;;;4937051;29;20028;-72
2022/03/11 11:21:42;;;;;;;10.65;6.60;;;21.90;48.20;;;;;;4936471;29;20032;-73
2022/03/11 11:24:21;;;;;;;11.82;6.95;;;21.90;48.20;;;;;;4935778;29;20040;-72
2022/03/11 11:26:53;;;;;;;10.10;6.20;;;21.90;48.20;;;;;;4935801;29;20056;-72
2022/03/11 11:29:21;;;;;;;12.95;6.70;;;21.90;48.20;;;;;;4936511;29;20559;-72
2022/03/11 11:31:47;;;;;;;12.40;6.85;;;21.90;48.20;;;;;;4935694;29;20043;-72
2022/03/11 11:34:30;;;;;;;11.02;6.53;;;21.90;48.20;;;;;;4920045;29;20059;-73
2022/03/11 11:36:57;;;;;;;11.63;6.45;;;21.90;48.20;;;;;;4936739;29;20027;-72
2022/03/11 11:39:35;;;;;;;10.90;6.20;;;21.90;48.30;;;;;;4935262;29;20054;-72
2022/03/11 11:42:07;;;;;;;11.88;6.40;;;21.90;48.20;;;;;;4936582;29;20028;-72
2022/03/11 11:44:37;;;;;;;11.55;6.55;;;21.90;48.30;;;;;;4936737;29;20031;-72
2022/03/11 11:47:08;;;;;;;11.40;6.65;;;21.90;48.30;;;;;;4935313;28;20408;-72
2022/03/11 11:49:41;;;;;;;11.90;7.00;;;21.90;48.20;;;;;;4936257;29;20051;-73
2022/03/11 11:52:11;;;;;;;11.13;6.38;;;21.90;48.20;;;;;;4936464;29;20032;-72
2022/03/11 11:54:42;;;;;;;10.87;6.90;;;21.90;48.20;;;;;;4935764;29;20437;-72
2022/03/11 11:57:15;;;;;;;10.68;6.30;;;21.90;48.20;;;;;;4919581;29;20331;-72
2022/03/11 11:59:42;;;;;;;10.88;6.38;;;21.90;48.20;;;;;;4935958;29;20058;-73
2022/03/11 12:02:30;;;;;;;10.68;6.15;;;21.90;48.30;;;;;;4935568;29;20027;-73
2022/03/11 12:04:57;;;;;;;12.07;6.50;;;21.90;48.20;;;;;;4936386;29;20063;-72
2022/03/11 12:07:46;;;;;;;10.30;5.70;;;21.90;48.20;;;;;;4919419;29;20062;-72
2022/03/11 12:10:23;;;;;;;10.73;6.53;;;21.90;48.10;;;;;;4934476;29;20071;-72
2022/03/11 12:12:49;;;;;;;10.85;6.25;;;21.90;48.20;;;;;;4903703;29;20027;-72
2022/03/11 12:15:16;;;;;;;10.80;6.22;;;21.90;48.30;;;;;;4935537;29;20034;-73
2022/03/11 12:17:48;;;;;;;10.18;5.90;;;21.90;48.30;;;;;;4919171;29;20039;-73
2022/03/11 12:20:46;;;;;;;10.43;6.10;;;21.90;48.30;;;;;;4952496;23;20023;-70
2022/03/11 12:23:19;;;;;;;10.55;6.05;;;21.90;48.20;;;;;;4991464;28;20027;-71
2022/03/11 12:25:52;;;;;;;12.88;7.00;;;21.90;48.30;;;;;;4993105;28;20423;-73
2022/03/11 12:28:27;;;;;;;10.20;6.28;;;21.80;47.80;;;;;;4976420;28;20038;-72
2022/03/11 12:31:13;;;;;;;19.25;7.10;;;21.70;47.10;;;;;;4993481;28;20062;-71
2022/03/11 12:33:45;;;;;;;16.15;6.82;;;21.40;36.40;;;;;;4993159;28;20085;-72
2022/03/11 12:36:22;;;;;;;16.23;7.07;;;21.10;31.90;;;;;;4993689;28;20057;-72
2022/03/11 12:38:50;;;;;;;16.20;6.68;;;20.80;29.40;;;;;;4991846;28;20491;-70
2022/03/11 12:41:22;;;;;;;23.45;6.90;;;20.60;27.10;;;;;;4992959;28;20026;-71
2022/03/11 12:43:48;;;;;;;15.95;6.68;;;20.40;26.60;;;;;;4993561;28;20027;-71
2022/03/11 12:46:14;;;;;;;16.95;6.63;;;20.50;28.40;;;;;;4989738;28;20030;-71